Time;durP1;ratioP1;P1;durP2;ratioP2;P2;SDS_P1;SDS_P2;PMS_P1;PMS_P2;Temp;Humidity;BMP_temperature;BMP_pressure;BME280_temperature;BME280_humidity;BME280_pressure;Samples;Min_cycle;Max_cycle;Signal;HPM_P1;HPM_P2
2021/01/20 00:01:10;;;;;;;3.67;3.25;;;;;;;-4.20;81.55;97983.30;1705892;82;21198;-66
2021/01/20 00:03:43;;;;;;;4.55;3.05;;;;;;;-4.14;81.37;97978.47;1721309;82;21207;-65
2021/01/20 00:06:11;;;;;;;7.05;3.70;;;;;;;-4.20;81.34;97974.89;1706212;82;21171;-65
2021/01/20 00:08:39;;;;;;;2.42;1.47;;;;;;;-4.18;81.61;97981.55;1721314;82;21178;-65
2021/01/20 00:11:07;;;;;;;5.25;3.67;;;;;;;-4.16;81.33;97972.17;1706034;83;21163;-65
2021/01/20 00:13:35;;;;;;;4.50;2.50;;;;;;;-4.16;81.81;97970.10;1721275;82;21137;-65
2021/01/20 00:16:04;;;;;;;6.10;4.08;;;;;;;-4.14;81.85;97976.77;1705768;83;21131;-65
2021/01/20 00:18:32;;;;;;;9.68;5.78;;;;;;;-4.19;81.48;97963.41;1721248;82;21171;-65
2021/01/20 00:21:01;;;;;;;11.15;4.25;;;;;;;-4.22;81.55;97963.52;1706267;83;21152;-65
2021/01/20 00:23:30;;;;;;;6.90;4.22;;;;;;;-4.21;82.09;97961.38;1721296;82;21618;-65
2021/01/20 00:25:59;;;;;;;4.65;3.60;;;;;;;-4.21;82.02;97957.58;1704910;82;21206;-65
2021/01/20 00:28:27;;;;;;;12.73;7.47;;;;;;;-4.21;81.82;97956.30;1693517;83;21239;-65
2021/01/20 00:30:56;;;;;;;5.12;2.83;;;;;;;-4.27;82.14;97962.00;1698263;83;21171;-65
2021/01/20 00:33:25;;;;;;;4.33;2.55;;;;;;;-4.22;81.93;97963.52;1693314;83;21628;-67
2021/01/20 00:35:53;;;;;;;5.85;2.95;;;;;;;-4.19;81.53;97953.27;1697858;83;21179;-65
2021/01/20 00:38:22;;;;;;;7.05;5.65;;;;;;;-4.17;82.15;97944.34;1697892;83;21198;-65
2021/01/20 00:40:53;;;;;;;5.17;4.28;;;;;;;-4.25;82.05;97946.31;1698158;83;21172;-65
2021/01/20 00:43:21;;;;;;;3.50;2.33;;;;;;;-4.25;82.04;97943.34;1693448;83;21132;-65
2021/01/20 00:45:49;;;;;;;1.35;1.25;;;;;;;-4.18;81.68;97946.48;1698175;83;21136;-65
2021/01/20 00:48:17;;;;;;;7.37;3.65;;;;;;;-4.15;81.68;97940.03;1697914;83;21170;-65
2021/01/20 00:50:46;;;;;;;3.10;2.85;;;;;;;-4.21;82.14;97942.80;1697995;83;21135;-65
2021/01/20 00:53:16;;;;;;;2.40;2.20;;;;;;;-4.17;81.91;97943.91;1693588;83;21175;-66
2021/01/20 00:55:44;;;;;;;10.40;6.60;;;;;;;-4.14;81.97;97937.89;1698074;83;21160;-65
2021/01/20 00:58:13;;;;;;;4.22;2.65;;;;;;;-4.26;82.39;97934.08;1693231;83;21159;-66
2021/01/20 01:06:55;;;;;;;6.37;3.37;;;;;;;-4.12;82.11;97915.83;1650079;86;21155;-65
2021/01/20 01:09:25;;;;;;;4.10;2.75;;;;;;;-4.26;82.79;97907.45;1610725;88;21170;-64
2021/01/20 01:11:53;;;;;;;4.25;2.85;;;;;;;-4.18;82.31;97908.02;1610771;88;21206;-65
2021/01/20 01:14:21;;;;;;;5.65;3.45;;;;;;;-4.16;82.49;97905.44;1610950;88;21218;-64
2021/01/20 01:16:57;;;;;;;3.27;3.08;;;;;;;-4.17;82.39;97897.44;1609633;88;21198;-66
2021/01/20 01:19:37;;;;;;;5.22;3.65;;;;;;;-4.19;82.53;97888.60;1653131;85;21181;-62
2021/01/20 01:22:05;;;;;;;7.85;5.47;;;;;;;-4.17;82.61;97893.20;1610668;88;21161;-62
2021/01/20 01:24:34;;;;;;;3.77;1.70;;;;;;;-4.15;82.45;97894.39;1589811;89;21210;-65
2021/01/20 01:27:07;;;;;;;1.95;1.75;;;;;;;-4.12;82.20;97895.55;1654006;87;21186;-65
2021/01/20 01:29:36;;;;;;;6.37;2.50;;;;;;;-4.07;82.24;97887.34;1654285;87;22086;-65
2021/01/20 01:32:09;;;;;;;8.45;5.22;;;;;;;-4.01;82.39;97889.67;1637855;86;21199;-64
2021/01/20 01:34:38;;;;;;;4.40;2.67;;;;;;;-4.10;82.75;97881.11;1669936;86;21304;-64
2021/01/20 01:37:07;;;;;;;7.42;4.72;;;;;;;-4.03;82.22;97868.59;1670015;86;21139;-67
2021/01/20 01:39:53;;;;;;;2.15;2.00;;;;;;;-4.05;82.05;97876.71;1630585;86;21183;-65
2021/01/20 01:42:27;;;;;;;4.28;1.95;;;;;;;-3.93;81.78;97867.39;1646847;86;21310;-65
2021/01/20 01:44:57;;;;;;;4.00;3.70;;;;;;;-4.01;82.22;97869.38;1645092;86;21182;-66
2021/01/20 01:47:25;;;;;;;4.92;2.92;;;;;;;-3.96;82.05;97864.51;1646814;86;21220;-66
2021/01/20 01:49:58;;;;;;;4.42;3.27;;;;;;;-3.95;81.98;97869.14;1645877;86;21167;-62
2021/01/20 01:52:29;;;;;;;12.98;4.80;;;;;;;-3.88;82.08;97860.41;1639123;87;21262;-65
2021/01/20 01:55:19;;;;;;;4.45;3.02;;;;;;;-3.95;82.21;97863.63;1646547;86;21147;-65
2021/01/20 01:57:49;;;;;;;7.03;3.12;;;;;;;-3.82;81.82;97867.81;1638807;87;21211;-67
2021/01/20 02:00:20;;;;;;;3.55;2.27;;;;;;;-3.89;82.29;97859.59;1620579;86;21196;-64
2021/01/20 02:02:52;;;;;;;5.00;2.95;;;;;;;-3.83;81.76;97854.73;1668744;84;21175;-66
2021/01/20 02:05:22;;;;;;;4.72;3.05;;;;;;;-3.73;81.56;97866.19;1646398;86;21861;-64
2021/01/20 02:07:51;;;;;;;5.65;3.85;;;;;;;-3.76;81.69;97856.16;1670113;84;21210;-64
2021/01/20 02:10:22;;;;;;;6.47;3.02;;;;;;;-3.76;81.75;97843.47;1645806;86;21621;-66
2021/01/20 02:13:27;;;;;;;5.55;4.08;;;;;;;-3.68;81.43;97853.33;1646495;86;21171;-66
2021/01/20 02:19:47;;;;;;;6.60;4.87;;;;;;;-3.62;81.19;97845.50;1700509;83;21603;-65
2021/01/20 02:22:41;;;;;;;4.85;3.98;;;;;;;-3.68;81.51;97844.01;1699788;84;21174;-65
2021/01/20 02:29:38;;;;;;;3.85;3.55;;;;;;;-3.56;81.74;97845.25;1893661;75;23054;-66
2021/01/20 02:32:10;;;;;;;2.62;1.87;;;;;;;-3.64;82.11;97834.56;1857239;77;21102;-64
2021/01/20 02:34:41;;;;;;;3.83;1.95;;;;;;;-3.58;81.64;97844.50;1864525;77;21625;-67
2021/01/20 02:37:11;;;;;;;4.58;2.30;;;;;;;-3.60;81.69;97836.92;1899453;75;21130;-65
2021/01/20 02:39:59;;;;;;;4.42;3.37;;;;;;;-3.56;81.52;97824.94;1899445;75;21171;-66
2021/01/20 02:42:32;;;;;;;6.00;5.25;;;;;;;-3.51;81.28;97820.08;1895781;75;21553;-64
2021/01/20 02:45:07;;;;;;;2.50;1.72;;;;;;;-3.61;81.76;97821.31;1897995;75;21179;-65
2021/01/20 02:47:38;;;;;;;4.60;3.77;;;;;;;-3.57;81.62;97817.77;1898664;75;21532;-64
2021/01/20 02:53:11;;;;;;;4.85;2.87;;;;;;;-3.58;81.73;97813.56;1659014;85;21157;-66
2021/01/20 02:56:02;;;;;;;3.50;2.62;;;;;;;-3.63;82.07;97806.60;1692124;83;21175;-66
2021/01/20 02:58:51;;;;;;;5.60;2.87;;;;;;;-3.61;82.21;97793.39;1667611;84;21223;-65
2021/01/20 03:01:22;;;;;;;3.40;2.77;;;;;;;-3.53;82.02;97777.86;1675064;86;21198;-64
2021/01/20 03:03:52;;;;;;;4.25;2.72;;;;;;;-3.51;82.00;97793.43;1675128;84;21591;-64
2021/01/20 03:06:22;;;;;;;3.12;2.17;;;;;;;-3.50;82.30;97782.84;1675317;86;21551;-63
2021/01/20 03:08:50;;;;;;;4.17;1.77;;;;;;;-3.43;81.72;97776.63;1675240;86;21666;-63
2021/01/20 03:11:19;;;;;;;9.10;4.55;;;;;;;-3.38;81.69;97789.94;1667508;84;21608;-64
2021/01/20 03:13:48;;;;;;;5.53;3.77;;;;;;;-3.51;82.19;97784.98;1675423;84;21162;-69
2021/01/20 03:16:23;;;;;;;6.50;5.08;;;;;;;-3.46;82.46;97775.02;1675366;84;21206;-64
2021/01/20 03:18:53;;;;;;;7.83;4.37;;;;;;;-3.43;82.11;97781.27;1675340;86;21295;-63
2021/01/20 03:21:21;;;;;;;4.08;3.42;;;;;;;-3.43;82.19;97786.34;1667661;84;21215;-63
2021/01/20 03:23:49;;;;;;;4.85;4.25;;;;;;;-3.41;82.01;97770.59;1675218;85;21198;-64
2021/01/20 03:26:21;;;;;;;4.50;2.50;;;;;;;-3.32;81.90;97787.61;1675255;86;21619;-65
2021/01/20 03:28:51;;;;;;;6.45;4.75;;;;;;;-3.20;81.57;97789.66;1686149;84;21199;-65
2021/01/20 03:31:20;;;;;;;7.15;3.35;;;;;;;-3.23;81.49;97780.89;1675367;85;21559;-65
2021/01/20 03:33:48;;;;;;;6.97;2.37;;;;;;;-3.23;81.72;97769.47;1675263;86;21590;-66
2021/01/20 03:36:16;;;;;;;3.77;2.58;;;;;;;-3.14;81.35;97793.20;1667357;84;21533;-65
2021/01/20 03:38:44;;;;;;;2.98;2.40;;;;;;;-3.02;81.07;97787.61;1675000;84;21599;-66
2021/01/20 03:41:12;;;;;;;7.12;3.42;;;;;;;-3.09;81.26;97761.66;1674670;86;21194;-65
2021/01/20 03:43:40;;;;;;;4.92;2.33;;;;;;;-3.11;81.26;97764.69;1666874;86;21208;-65
2021/01/20 03:46:08;;;;;;;8.05;4.12;;;;;;;-3.01;80.95;97774.86;1674723;84;21158;-65
2021/01/20 03:48:36;;;;;;;7.97;4.62;;;;;;;-2.94;80.53;97758.47;1674773;86;21135;-65
2021/01/20 03:51:05;;;;;;;4.60;4.20;;;;;;;-3.05;81.32;97758.53;1679270;83;21173;-66
2021/01/20 03:53:33;;;;;;;3.47;2.25;;;;;;;-3.08;81.08;97765.85;1728370;83;21179;-65
2021/01/20 03:56:00;;;;;;;3.08;2.10;;;;;;;-2.94;80.91;97779.23;1728210;83;21588;-66
2021/01/20 03:58:28;;;;;;;5.33;4.83;;;;;;;-2.92;80.48;97775.72;1728246;83;21158;-65
2021/01/20 04:01:18;;;;;;;10.18;7.03;;;;;;;-2.98;80.92;97762.47;1728151;83;21167;-66
2021/01/20 04:03:47;;;;;;;4.17;3.77;;;;;;;-3.03;81.25;97763.09;1785301;80;21144;-66
2021/01/20 04:06:19;;;;;;;5.40;3.92;;;;;;;-2.95;80.77;97775.03;1784725;80;21591;-66
2021/01/20 04:08:47;;;;;;;9.93;6.55;;;;;;;-2.91;80.83;97759.59;1785188;80;21131;-66
2021/01/20 04:11:15;;;;;;;9.35;4.90;;;;;;;-3.01;81.09;97742.28;1785341;80;21146;-67
2021/01/20 04:13:43;;;;;;;4.55;3.65;;;;;;;-3.03;80.99;97755.03;1785220;80;21160;-66
2021/01/20 04:16:11;;;;;;;7.97;5.25;;;;;;;-3.11;81.55;97747.38;1785581;80;21116;-67
2021/01/20 04:18:42;;;;;;;7.37;5.53;;;;;;;-3.07;81.56;97738.27;1785190;80;21147;-64
2021/01/20 04:21:11;;;;;;;3.37;3.10;;;;;;;-3.09;81.71;97751.94;1785080;80;21143;-64
2021/01/20 04:23:40;;;;;;;5.85;3.75;;;;;;;-3.06;81.53;97742.91;1785094;79;21127;-64
2021/01/20 04:26:09;;;;;;;3.35;2.92;;;;;;;-3.10;81.32;97746.02;1785243;80;21192;-64
2021/01/20 04:28:37;;;;;;;4.97;4.08;;;;;;;-3.02;81.11;97746.97;1785192;80;21568;-64
2021/01/20 04:31:06;;;;;;;4.35;3.25;;;;;;;-3.06;81.20;97761.95;1785202;79;21139;-62
2021/01/20 04:33:35;;;;;;;3.55;2.62;;;;;;;-3.05;81.76;97758.09;1785472;80;21175;-64
2021/01/20 04:36:05;;;;;;;4.33;3.42;;;;;;;-3.03;81.58;97750.39;1785545;80;21167;-62
2021/01/20 04:38:35;;;;;;;3.30;3.02;;;;;;;-2.98;81.40;97757.38;1785408;80;21178;-63
2021/01/20 04:41:03;;;;;;;5.75;3.50;;;;;;;-2.91;81.14;97768.48;1785959;80;21555;-65
2021/01/20 04:43:31;;;;;;;2.92;2.52;;;;;;;-2.93;81.01;97760.56;1786208;80;21175;-65
2021/01/20 04:46:00;;;;;;;8.18;5.70;;;;;;;-2.95;81.43;97753.44;1785307;80;21150;-63
2021/01/20 04:48:34;;;;;;;6.30;4.20;;;;;;;-2.95;81.31;97763.16;1785524;80;21139;-65
2021/01/20 04:51:05;;;;;;;3.45;3.17;;;;;;;-2.97;81.49;97766.22;1786065;80;22284;-66
2021/01/20 04:53:38;;;;;;;5.70;3.22;;;;;;;-2.87;81.21;97762.83;1785537;80;21273;-63
2021/01/20 04:56:12;;;;;;;3.08;2.72;;;;;;;-2.86;81.36;97759.41;1785489;80;21516;-65
2021/01/20 04:58:41;;;;;;;5.67;3.77;;;;;;;-2.85;81.45;97771.23;1785237;80;21143;-65
2021/01/20 05:01:10;;;;;;;6.50;4.42;;;;;;;-2.78;81.33;97766.26;1785050;80;21607;-64
2021/01/20 05:03:41;;;;;;;3.90;3.35;;;;;;;-2.75;81.04;97764.85;1779878;80;21159;-65
2021/01/20 05:06:11;;;;;;;5.25;3.83;;;;;;;-2.73;80.92;97768.61;1779729;80;21135;-65
2021/01/20 05:08:40;;;;;;;2.87;2.45;;;;;;;-2.71;80.79;97760.02;1779361;80;21175;-67
2021/01/20 05:11:09;;;;;;;6.35;4.05;;;;;;;-2.67;80.97;97756.89;1779662;80;21202;-67
2021/01/20 05:13:37;;;;;;;8.65;5.03;;;;;;;-2.66;81.32;97755.56;1779699;80;21194;-66
2021/01/20 05:16:05;;;;;;;7.70;4.42;;;;;;;-2.75;81.04;97756.39;1779653;80;21628;-66
2021/01/20 05:18:49;;;;;;;3.80;1.67;;;;;;;-2.67;81.25;97754.34;1779602;79;21144;-66
2021/01/20 05:21:19;;;;;;;4.97;4.37;;;;;;;-2.63;80.92;97755.87;1779740;80;21583;-66
2021/01/20 05:23:48;;;;;;;4.30;3.42;;;;;;;-2.62;81.37;97757.09;1779961;80;21136;-66
2021/01/20 05:26:16;;;;;;;5.78;4.97;;;;;;;-2.64;80.95;97749.12;1780130;80;21175;-66
2021/01/20 05:28:45;;;;;;;4.35;3.92;;;;;;;-2.68;81.22;97753.96;1779672;80;21418;-66
2021/01/20 05:31:26;;;;;;;6.05;3.33;;;;;;;-2.62;81.11;97761.34;1765392;80;21206;-66
2021/01/20 05:33:54;;;;;;;5.50;2.95;;;;;;;-2.59;81.46;97758.22;1748970;82;21159;-66
2021/01/20 05:36:23;;;;;;;12.47;5.92;;;;;;;-2.56;81.54;97768.69;1759640;79;21277;-66
2021/01/20 05:38:51;;;;;;;6.40;3.47;;;;;;;-2.65;82.00;97766.56;1747175;80;21571;-66
2021/01/20 05:50:26;;;;;;;5.35;3.77;;;;;;;-2.40;81.59;97792.11;1694150;84;21203;-66
2021/01/20 05:53:11;;;;;;;8.78;4.53;;;;;;;-2.47;81.45;97800.91;1660054;86;21270;-67
2021/01/20 05:55:41;;;;;;;12.93;6.00;;;;;;;-2.45;81.65;97807.17;1660278;86;21574;-67
2021/01/20 05:58:10;;;;;;;5.05;3.58;;;;;;;-2.40;82.19;97812.45;1631891;87;21272;-66
2021/01/20 06:00:38;;;;;;;5.87;3.83;;;;;;;-2.35;81.43;97813.97;1660187;86;21189;-66
2021/01/20 06:03:06;;;;;;;6.92;5.35;;;;;;;-2.33;81.43;97821.10;1605429;87;21713;-66
2021/01/20 06:05:35;;;;;;;6.40;3.98;;;;;;;-2.34;81.56;97828.34;1633853;86;21777;-66
2021/01/20 06:11:22;;;;;;;4.55;3.17;;;;;;;-2.36;82.01;97830.94;1692088;84;21313;-66
2021/01/20 06:13:51;;;;;;;4.90;3.52;;;;;;;-2.30;81.79;97833.68;1685394;85;21160;-66
2021/01/20 06:16:29;;;;;;;5.40;4.87;;;;;;;-2.29;81.93;97840.39;1692482;85;21311;-66
2021/01/20 06:19:10;;;;;;;12.63;5.00;;;;;;;-2.26;81.63;97847.47;1685154;85;21704;-66
2021/01/20 06:21:46;;;;;;;7.33;5.25;;;;;;;-2.21;81.80;97854.88;1772808;80;21541;-66
2021/01/20 06:28:14;;;;;;;9.10;5.05;;;;;;;-2.12;82.22;97861.67;1764652;79;21208;-65
2021/01/20 06:30:45;;;;;;;10.68;6.40;;;;;;;-2.02;81.85;97863.34;1711234;83;21144;-66
2021/01/20 06:33:15;;;;;;;7.05;4.87;;;;;;;-2.08;82.05;97861.09;1711420;84;21599;-66
2021/01/20 06:35:48;;;;;;;7.40;6.37;;;;;;;-2.15;82.28;97842.73;1704522;83;21563;-65
2021/01/20 06:38:54;;;;;;;6.03;5.30;;;;;;;-2.06;82.73;97864.38;1719142;83;21202;-64
2021/01/20 06:41:40;;;;;;;7.70;5.85;;;;;;;-1.96;82.11;97869.02;1789314;79;21137;-65
2021/01/20 06:44:14;;;;;;;5.53;3.37;;;;;;;-2.04;82.28;97867.25;1748997;80;21142;-70
2021/01/20 06:47:17;;;;;;;9.75;6.35;;;;;;;-1.96;82.02;97864.36;1751083;80;21241;-65
2021/01/20 06:50:22;;;;;;;7.08;3.15;;;;;;;-1.87;81.96;97872.88;1819222;79;22981;-65
2021/01/20 06:53:07;;;;;;;10.40;6.97;;;;;;;-1.86;81.66;97881.30;1670283;86;21136;-64
2021/01/20 06:55:39;;;;;;;9.20;6.97;;;;;;;-1.82;81.78;97889.19;1670200;86;21589;-64
2021/01/20 06:58:26;;;;;;;8.88;5.15;;;;;;;-1.91;81.86;97885.36;1670027;86;21176;-65
2021/01/20 07:01:06;;;;;;;8.18;6.08;;;;;;;-1.81;81.87;97886.58;1670019;84;21156;-65
2021/01/20 07:03:48;;;;;;;8.35;4.42;;;;;;;-1.78;81.42;97889.42;1668958;84;21188;-67
2021/01/20 07:06:40;;;;;;;9.10;5.08;;;;;;;-1.69;81.60;97894.12;1669368;86;21178;-65
2021/01/20 07:09:11;;;;;;;7.47;5.08;;;;;;;-1.67;81.51;97898.23;1669882;84;21609;-64
2021/01/20 07:12:23;;;;;;;8.65;4.97;;;;;;;-1.61;80.47;97894.16;1669951;84;21612;-65
2021/01/20 07:14:54;;;;;;;8.03;5.42;;;;;;;-1.61;80.25;97904.78;1651237;87;21176;-64
2021/01/20 07:17:23;;;;;;;8.78;5.47;;;;;;;-1.59;80.38;97906.80;1651567;87;21557;-64
2021/01/20 07:19:52;;;;;;;8.53;4.33;;;;;;;-1.65;80.21;97901.99;1651585;87;21184;-63
2021/01/20 07:22:20;;;;;;;8.48;5.60;;;;;;;-1.62;80.50;97917.12;1651489;87;21188;-65
2021/01/20 07:24:48;;;;;;;11.45;7.25;;;;;;;-1.54;80.44;97911.24;1651600;87;21212;-63
2021/01/20 07:27:18;;;;;;;8.93;5.72;;;;;;;-1.66;80.73;97916.44;1651910;87;21176;-64
2021/01/20 07:29:47;;;;;;;12.68;6.05;;;;;;;-1.66;81.39;97917.72;1651724;87;21204;-63
2021/01/20 07:32:20;;;;;;;11.68;5.60;;;;;;;-1.55;80.24;97925.69;1650554;85;21236;-63
2021/01/20 07:34:49;;;;;;;8.90;5.37;;;;;;;-1.63;81.07;97926.48;1637856;87;21159;-64
2021/01/20 07:37:18;;;;;;;8.93;6.80;;;;;;;-1.56;80.83;97929.16;1669366;85;21592;-64
2021/01/20 07:39:46;;;;;;;8.05;5.70;;;;;;;-1.56;81.26;97934.25;1679244;85;21184;-63
2021/01/20 07:42:15;;;;;;;13.15;6.67;;;;;;;-1.59;80.26;97928.00;1677576;85;21149;-64
2021/01/20 07:44:48;;;;;;;12.43;6.53;;;;;;;-1.41;79.83;97941.64;1645539;87;21189;-64
2021/01/20 07:47:16;;;;;;;13.50;6.72;;;;;;;-1.49;80.20;97947.52;1649961;87;21228;-64
2021/01/20 07:49:56;;;;;;;11.50;5.78;;;;;;;-1.17;79.42;97951.16;1649861;87;21152;-64
2021/01/20 07:52:24;;;;;;;8.68;5.87;;;;;;;-1.17;79.42;97951.16;1649999;87;21195;-64
2021/01/20 07:54:52;;;;;;;11.53;6.05;;;;;;;-1.02;79.18;97950.44;1649992;87;21160;-64
2021/01/20 07:57:23;;;;;;;8.63;5.83;;;;;;;-1.10;78.74;97953.80;1649808;87;21196;-63
2021/01/20 08:00:03;;;;;;;7.95;4.87;;;;;;;-0.88;77.77;97944.23;1649748;87;21664;-66
2021/01/20 08:02:36;;;;;;;9.13;6.03;;;;;;;-0.71;77.75;97951.91;1648495;87;21192;-66
2021/01/20 08:05:27;;;;;;;9.93;6.53;;;;;;;-0.51;77.24;97950.95;1649080;87;21196;-66
2021/01/20 08:08:06;;;;;;;9.15;5.90;;;;;;;-0.38;75.91;97949.88;1632609;88;21164;-67
2021/01/20 08:10:35;;;;;;;11.70;6.12;;;;;;;-0.19;76.81;97950.16;1632761;87;21620;-67
2021/01/20 08:13:05;;;;;;;8.60;5.65;;;;;;;-0.17;74.90;97953.92;1633154;87;21191;-68
2021/01/20 08:15:36;;;;;;;10.78;6.85;;;;;;;-0.10;74.05;97948.88;1633007;88;21183;-66
2021/01/20 08:18:06;;;;;;;10.40;6.50;;;;;;;0.08;74.39;97958.15;1633256;87;21183;-67
2021/01/20 08:20:36;;;;;;;12.98;7.87;;;;;;;0.15;73.73;97959.52;1632122;88;21151;-67
2021/01/20 08:23:22;;;;;;;10.78;6.92;;;;;;;-0.13;75.22;97959.25;1629839;87;21153;-67
2021/01/20 08:25:50;;;;;;;11.45;6.75;;;;;;;0.04;73.45;97957.13;1626696;88;22440;-67
2021/01/20 08:28:19;;;;;;;13.53;7.92;;;;;;;0.13;73.59;97957.47;1627282;88;21219;-66
2021/01/20 08:30:48;;;;;;;13.13;6.90;;;;;;;-0.03;74.54;97955.32;1630379;88;21260;-66
2021/01/20 08:33:20;;;;;;;12.33;7.00;;;;;;;-0.15;75.42;97958.48;1626897;88;21140;-66
2021/01/20 08:35:57;;;;;;;15.28;6.33;;;;;;;-0.10;74.29;97958.64;1630172;88;21497;-67
2021/01/20 08:38:29;;;;;;;23.98;9.43;;;;;;;0.08;74.31;97962.46;1628235;88;21175;-67
2021/01/20 08:41:13;;;;;;;15.25;8.95;;;;;;;-0.28;76.29;97967.23;1626955;88;21965;-67
2021/01/20 08:43:44;;;;;;;9.73;7.42;;;;;;;-0.47;75.44;97973.30;1628065;87;21136;-67
2021/01/20 08:46:25;;;;;;;11.80;7.00;;;;;;;-0.33;75.61;97975.55;1630406;87;21194;-67
2021/01/20 08:48:58;;;;;;;12.10;6.85;;;;;;;-0.18;75.92;97975.23;1630408;87;21124;-67
2021/01/20 08:51:27;;;;;;;6.50;4.80;;;;;;;-0.13;74.82;97980.95;1630313;88;21609;-65
2021/01/20 08:54:19;;;;;;;12.65;7.70;;;;;;;0.02;74.63;97975.52;1629932;87;21164;-71
2021/01/20 08:56:47;;;;;;;7.60;5.55;;;;;;;0.13;74.93;97979.17;1661307;85;21183;-68
2021/01/20 08:59:16;;;;;;;10.93;6.72;;;;;;;0.31;74.74;97982.53;1661099;86;21539;-67
2021/01/20 09:01:46;;;;;;;13.43;6.70;;;;;;;0.45;74.30;97978.80;1661398;85;21211;-67
2021/01/20 09:04:15;;;;;;;12.58;7.37;;;;;;;0.57;74.02;97975.61;1661573;85;21155;-66
2021/01/20 09:06:44;;;;;;;15.40;8.35;;;;;;;0.39;73.05;97975.27;1661257;86;21636;-67
2021/01/20 09:09:13;;;;;;;22.48;9.00;;;;;;;0.22;73.52;97979.99;1661870;86;21545;-67
2021/01/20 09:11:42;;;;;;;19.37;10.75;;;;;;;0.22;73.66;97979.99;1661048;86;21619;-66
2021/01/20 09:14:11;;;;;;;17.05;6.97;;;;;;;0.04;74.91;97983.94;1660790;86;21226;-67
2021/01/20 09:16:39;;;;;;;10.32;7.55;;;;;;;0.07;74.91;97987.16;1657576;86;21175;-66
2021/01/20 09:19:08;;;;;;;14.65;9.33;;;;;;;0.22;74.73;97983.83;1660889;85;21243;-66
2021/01/20 09:21:59;;;;;;;18.15;9.00;;;;;;;0.20;74.30;97988.62;1653574;86;21151;-66
2021/01/20 09:24:29;;;;;;;18.82;8.08;;;;;;;0.22;74.33;97985.10;1634699;87;21208;-67
2021/01/20 09:26:58;;;;;;;16.32;9.43;;;;;;;0.24;74.72;97984.56;1631971;87;21188;-67
2021/01/20 09:29:28;;;;;;;15.75;9.58;;;;;;;0.37;74.32;97985.59;1630305;86;21573;-67
2021/01/20 09:31:57;;;;;;;16.40;8.60;;;;;;;0.40;73.89;97984.59;1638630;87;21129;-69
2021/01/20 09:34:29;;;;;;;14.90;8.63;;;;;;;0.42;73.66;97984.91;1635209;87;21668;-66
2021/01/20 09:36:57;;;;;;;17.98;10.30;;;;;;;0.50;73.60;97990.89;1637158;87;21263;-66
2021/01/20 09:39:25;;;;;;;15.43;8.13;;;;;;;0.20;74.78;97987.34;1633862;87;21238;-66
2021/01/20 09:41:53;;;;;;;13.13;6.95;;;;;;;0.04;75.58;97982.19;1638371;86;21688;-66
2021/01/20 09:44:22;;;;;;;17.55;7.90;;;;;;;0.11;74.87;97977.17;1632302;87;21169;-65
2021/01/20 09:46:50;;;;;;;12.13;7.70;;;;;;;0.00;75.84;97976.41;1625386;87;21251;-66
2021/01/20 09:49:18;;;;;;;13.20;7.05;;;;;;;-0.01;75.55;97978.61;1625185;87;21206;-64
2021/01/20 09:51:46;;;;;;;11.90;7.47;;;;;;;0.09;75.23;97981.95;1625338;87;21606;-65
2021/01/20 09:54:14;;;;;;;17.73;7.40;;;;;;;-0.20;76.59;97987.27;1640990;86;21163;-65
2021/01/20 09:56:43;;;;;;;12.05;7.33;;;;;;;-0.22;76.75;97988.60;1653899;87;21227;-65
2021/01/20 09:59:11;;;;;;;13.25;7.15;;;;;;;-0.13;76.34;97986.88;1638654;85;21225;-66
2021/01/20 10:01:39;;;;;;;12.07;8.23;;;;;;;-0.06;75.57;97989.50;1619104;88;21168;-66
2021/01/20 10:04:07;;;;;;;12.03;7.22;;;;;;;0.08;75.23;97990.55;1619257;88;21323;-66
2021/01/20 10:06:36;;;;;;;13.05;7.97;;;;;;;0.01;75.54;97993.84;1619588;87;21188;-66
2021/01/20 10:11:45;;;;;;;13.62;7.85;;;;;;;0.29;74.50;97992.81;1726112;82;21131;-65
2021/01/20 10:14:17;;;;;;;11.15;6.17;;;;;;;0.18;75.05;97992.55;1726361;82;21201;-67
2021/01/20 10:16:46;;;;;;;11.73;7.90;;;;;;;0.38;74.94;97992.36;1726265;82;21158;-66
2021/01/20 10:19:16;;;;;;;15.95;7.92;;;;;;;0.55;74.25;97990.63;1726403;82;21177;-66
2021/01/20 10:21:45;;;;;;;9.63;6.33;;;;;;;0.63;73.82;97979.55;1726197;82;21650;-65
2021/01/20 10:24:14;;;;;;;15.38;7.97;;;;;;;0.79;73.99;97982.95;1722876;82;21186;-65
2021/01/20 10:26:42;;;;;;;15.25;8.75;;;;;;;0.85;72.77;97980.91;1717457;82;21182;-65
2021/01/20 10:29:11;;;;;;;14.33;6.97;;;;;;;0.75;72.78;97986.58;1715546;83;21167;-65
2021/01/20 10:31:41;;;;;;;14.68;7.20;;;;;;;0.79;72.56;97991.45;1715791;83;21694;-65
2021/01/20 10:34:11;;;;;;;11.85;7.10;;;;;;;0.73;72.53;97993.06;1715603;83;21167;-65
2021/01/20 10:36:40;;;;;;;16.77;9.08;;;;;;;0.81;72.55;97995.21;1715872;83;21124;-65
2021/01/20 10:39:10;;;;;;;13.45;7.15;;;;;;;0.74;72.80;97992.13;1715936;83;21159;-65
2021/01/20 10:42:00;;;;;;;10.10;6.40;;;;;;;0.61;73.68;97987.77;1715832;83;21128;-66
2021/01/20 10:44:28;;;;;;;14.20;7.25;;;;;;;0.79;73.30;97990.62;1660275;85;21233;-65
2021/01/20 10:46:57;;;;;;;11.65;8.03;;;;;;;0.84;72.82;97983.54;1660331;85;21186;-65
2021/01/20 10:49:26;;;;;;;11.63;7.40;;;;;;;0.80;72.55;97984.61;1659654;85;21183;-65
2021/01/20 10:51:54;;;;;;;10.95;7.40;;;;;;;0.86;72.85;97983.81;1658693;85;21172;-64
2021/01/20 10:54:22;;;;;;;13.22;8.73;;;;;;;0.84;72.31;97982.26;1658366;85;21204;-65
2021/01/20 10:57:05;;;;;;;31.48;19.40;;;;;;;0.54;73.83;97979.61;1709432;83;21160;-67
2021/01/20 10:59:41;;;;;;;18.17;9.85;;;;;;;0.71;74.01;97989.75;1705745;84;21173;-66
2021/01/20 11:02:03;;;;;;;44.95;25.70;;;;;;;0.44;75.57;97968.20;1703034;83;21583;-67
2021/01/20 11:04:32;;;;;;;35.43;18.35;;;;;;;0.61;74.95;97983.94;1697793;84;21244;-66
2021/01/20 11:07:00;;;;;;;9.08;6.85;;;;;;;0.63;73.67;97976.55;1713338;83;21510;-65
2021/01/20 11:09:30;;;;;;;14.33;6.17;;;;;;;0.43;75.43;97953.32;1689301;84;21558;-65
2021/01/20 11:11:59;;;;;;;13.30;9.00;;;;;;;0.44;75.21;97982.25;1715288;83;21171;-65
2021/01/20 11:14:29;;;;;;;13.18;9.53;;;;;;;0.36;75.46;97963.94;1715625;83;21173;-64
2021/01/20 11:16:58;;;;;;;10.98;7.33;;;;;;;0.15;76.67;97960.78;1715862;83;21172;-65
2021/01/20 11:19:27;;;;;;;14.95;8.93;;;;;;;0.33;76.08;97965.39;1709409;82;21168;-65
2021/01/20 11:21:56;;;;;;;14.93;9.60;;;;;;;0.45;75.73;97960.92;1697518;84;21658;-65
2021/01/20 11:24:25;;;;;;;21.20;11.75;;;;;;;0.20;76.53;97951.14;1702735;84;21168;-65
2021/01/20 11:26:54;;;;;;;15.80;9.43;;;;;;;0.40;76.10;97955.22;1698665;84;21185;-65
2021/01/20 11:29:24;;;;;;;20.62;10.30;;;;;;;0.48;75.60;97962.03;1703271;84;21204;-65
2021/01/20 11:31:52;;;;;;;13.20;7.72;;;;;;;0.55;75.35;97960.80;1703564;84;21238;-65
2021/01/20 11:34:20;;;;;;;15.55;9.03;;;;;;;0.63;75.13;97960.38;1698631;84;21724;-66
2021/01/20 11:36:48;;;;;;;10.75;7.10;;;;;;;0.69;74.95;97954.97;1703737;84;22065;-66
2021/01/20 11:39:17;;;;;;;12.88;8.70;;;;;;;0.76;74.72;97950.72;1698879;84;21169;-66
2021/01/20 11:41:44;;;;;;;12.13;8.50;;;;;;;0.83;74.64;97959.70;1703682;83;21158;-66
2021/01/20 11:44:13;;;;;;;14.28;7.75;;;;;;;0.88;74.15;97960.73;1698617;84;21165;-66
2021/01/20 11:46:41;;;;;;;13.53;7.67;;;;;;;0.55;75.48;97965.91;1703080;84;21169;-66
2021/01/20 11:49:10;;;;;;;9.90;7.33;;;;;;;0.70;75.09;97963.81;1698570;84;21174;-66
2021/01/20 11:51:42;;;;;;;15.45;8.85;;;;;;;0.80;74.72;97968.81;1703761;84;21217;-66
2021/01/20 11:54:09;;;;;;;15.60;8.78;;;;;;;0.67;74.84;97965.70;1703863;83;21251;-67
2021/01/20 11:56:38;;;;;;;15.18;8.28;;;;;;;0.55;76.40;97967.63;1698962;84;21772;-66
2021/01/20 11:59:06;;;;;;;13.72;8.13;;;;;;;0.73;75.59;97971.79;1699135;84;21216;-66
2021/01/20 12:01:35;;;;;;;18.35;10.00;;;;;;;0.72;75.36;97971.41;1699360;84;21151;-68
2021/01/20 12:04:06;;;;;;;12.98;8.63;;;;;;;0.37;78.05;97976.65;1699054;84;21166;-67
2021/01/20 12:06:34;;;;;;;16.70;8.98;;;;;;;0.58;77.03;97976.44;1698988;84;21165;-66
2021/01/20 12:09:03;;;;;;;11.55;9.58;;;;;;;0.61;77.22;97976.27;1699097;84;21185;-65
2021/01/20 12:11:31;;;;;;;16.75;10.43;;;;;;;0.42;78.64;97974.69;1699210;84;21574;-65
2021/01/20 12:13:59;;;;;;;15.30;9.13;;;;;;;0.41;78.49;97962.81;1693306;84;21132;-65
2021/01/20 12:16:28;;;;;;;11.38;6.17;;;;;;;0.46;78.27;97976.18;1700930;84;21189;-66
2021/01/20 12:18:56;;;;;;;15.18;9.45;;;;;;;0.46;77.92;97970.24;1741520;82;21194;-66
2021/01/20 12:21:24;;;;;;;14.25;8.65;;;;;;;0.43;77.61;97970.38;1741309;82;21290;-66
2021/01/20 12:23:53;;;;;;;13.13;7.62;;;;;;;0.56;77.67;97971.84;1741108;82;21324;-67
2021/01/20 12:26:21;;;;;;;17.95;10.50;;;;;;;0.50;78.29;97967.90;1741169;82;21123;-66
2021/01/20 12:28:49;;;;;;;12.35;7.50;;;;;;;0.51;78.12;97966.97;1741115;82;21594;-67